sensor_id;sensor_type;location;lat;lon;timestamp;pressure;altitude;pressure_sealevel;temperature;humidity
50123;BME280;36021;48.670;6.184;2023-04-28T00:01:51;98730.25;;;16.68;100.00
50123;BME280;36021;48.670;6.184;2023-04-28T00:04:19;98732.41;;;16.62;100.00
50123;BME280;36021;48.670;6.184;2023-04-28T00:06:45;98735.31;;;16.45;100.00
50123;BME280;36021;48.670;6.184;2023-04-28T00:09:12;98730.91;;;16.44;100.00
50123;BME280;36021;48.670;6.184;2023-04-28T00:11:38;98723.56;;;16.40;100.00
50123;BME280;36021;48.670;6.184;2023-04-28T00:14:04;98725.78;;;16.55;100.00
50123;BME280;36021;48.670;6.184;2023-04-28T00:16:29;98731.38;;;16.67;100.00
50123;BME280;36021;48.670;6.184;2023-04-28T00:18:57;98730.38;;;16.72;100.00
50123;BME280;36021;48.670;6.184;2023-04-28T00:21:23;98716.22;;;16.77;100.00
50123;BME280;36021;48.670;6.184;2023-04-28T00:23:49;98727.16;;;16.82;100.00
50123;BME280;36021;48.670;6.184;2023-04-28T00:26:14;98715.22;;;16.81;100.00
50123;BME280;36021;48.670;6.184;2023-04-28T00:28:42;98707.03;;;16.64;100.00
50123;BME280;36021;48.670;6.184;2023-04-28T00:31:09;98700.63;;;16.63;100.00
50123;BME280;36021;48.670;6.184;2023-04-28T00:33:34;98708.44;;;16.70;100.00
50123;BME280;36021;48.670;6.184;2023-04-28T00:36:00;98707.16;;;16.67;100.00
50123;BME280;36021;48.670;6.184;2023-04-28T00:38:25;98705.88;;;16.65;100.00
50123;BME280;36021;48.670;6.184;2023-04-28T00:40:51;98701.66;;;16.59;100.00
50123;BME280;36021;48.670;6.184;2023-04-28T00:43:17;98706.59;;;16.53;100.00
50123;BME280;36021;48.670;6.184;2023-04-28T00:45:43;98705.78;;;16.53;100.00
50123;BME280;36021;48.670;6.184;2023-04-28T00:48:10;98708.78;;;16.27;100.00
50123;BME280;36021;48.670;6.184;2023-04-28T00:50:37;98703.63;;;16.17;100.00
50123;BME280;36021;48.670;6.184;2023-04-28T00:53:03;98713.28;;;16.20;100.00
50123;BME280;36021;48.670;6.184;2023-04-28T00:55:30;98709.47;;;16.24;100.00
50123;BME280;36021;48.670;6.184;2023-04-28T00:57:56;98700.13;;;16.08;100.00
50123;BME280;36021;48.670;6.184;2023-04-28T01:00:23;98702.03;;;16.16;100.00
50123;BME280;36021;48.670;6.184;2023-04-28T01:02:50;98700.00;;;16.25;100.00
50123;BME280;36021;48.670;6.184;2023-04-28T01:05:16;98692.25;;;16.10;100.00
50123;BME280;36021;48.670;6.184;2023-04-28T01:07:43;98688.38;;;16.23;100.00
50123;BME280;36021;48.670;6.184;2023-04-28T01:10:11;98683.56;;;16.11;100.00
50123;BME280;36021;48.670;6.184;2023-04-28T01:12:36;98687.50;;;16.10;100.00
50123;BME280;36021;48.670;6.184;2023-04-28T01:15:02;98689.00;;;16.08;100.00
50123;BME280;36021;48.670;6.184;2023-04-28T01:17:30;98688.53;;;16.06;100.00
50123;BME280;36021;48.670;6.184;2023-04-28T01:19:56;98683.56;;;15.91;100.00
50123;BME280;36021;48.670;6.184;2023-04-28T01:22:21;98680.59;;;15.96;100.00
50123;BME280;36021;48.670;6.184;2023-04-28T01:24:47;98675.31;;;16.03;100.00
50123;BME280;36021;48.670;6.184;2023-04-28T01:27:15;98675.56;;;16.10;100.00
50123;BME280;36021;48.670;6.184;2023-04-28T01:29:41;98671.38;;;16.04;100.00
50123;BME280;36021;48.670;6.184;2023-04-28T01:32:06;98674.50;;;16.02;100.00
50123;BME280;36021;48.670;6.184;2023-04-28T01:34:33;98679.09;;;15.98;100.00
50123;BME280;36021;48.670;6.184;2023-04-28T01:36:58;98681.56;;;16.00;100.00
50123;BME280;36021;48.670;6.184;2023-04-28T01:39:23;98679.78;;;15.95;100.00
50123;BME280;36021;48.670;6.184;2023-04-28T01:41:50;98678.78;;;16.00;100.00
50123;BME280;36021;48.670;6.184;2023-04-28T01:44:16;98685.66;;;15.94;100.00
50123;BME280;36021;48.670;6.184;2023-04-28T01:46:41;98685.06;;;15.88;100.00
50123;BME280;36021;48.670;6.184;2023-04-28T01:49:07;98684.06;;;15.93;100.00
50123;BME280;36021;48.670;6.184;2023-04-28T01:51:34;98686.84;;;15.93;100.00
50123;BME280;36021;48.670;6.184;2023-04-28T01:54:00;98685.88;;;15.89;100.00
50123;BME280;36021;48.670;6.184;2023-04-28T01:56:26;98687.31;;;15.95;100.00
50123;BME280;36021;48.670;6.184;2023-04-28T01:58:55;98683.03;;;15.97;100.00
50123;BME280;36021;48.670;6.184;2023-04-28T02:01:20;98692.13;;;15.86;100.00
50123;BME280;36021;48.670;6.184;2023-04-28T02:03:46;98688.63;;;15.68;100.00
50123;BME280;36021;48.670;6.184;2023-04-28T02:06:13;98697.16;;;15.63;100.00
50123;BME280;36021;48.670;6.184;2023-04-28T02:08:40;98694.09;;;15.56;100.00
50123;BME280;36021;48.670;6.184;2023-04-28T02:11:06;98698.00;;;15.55;100.00
50123;BME280;36021;48.670;6.184;2023-04-28T02:13:32;98695.09;;;15.51;100.00
50123;BME280;36021;48.670;6.184;2023-04-28T02:16:01;98698.50;;;15.57;100.00
50123;BME280;36021;48.670;6.184;2023-04-28T02:18:27;98688.69;;;15.59;100.00
50123;BME280;36021;48.670;6.184;2023-04-28T02:20:52;98684.78;;;15.60;100.00
50123;BME280;36021;48.670;6.184;2023-04-28T02:23:18;98680.34;;;15.59;100.00
50123;BME280;36021;48.670;6.184;2023-04-28T02:25:45;98680.00;;;15.61;100.00
50123;BME280;36021;48.670;6.184;2023-04-28T02:28:11;98674.66;;;15.56;100.00
50123;BME280;36021;48.670;6.184;2023-04-28T02:30:37;98677.50;;;15.39;100.00
50123;BME280;36021;48.670;6.184;2023-04-28T02:33:03;98679.28;;;15.43;100.00
50123;BME280;36021;48.670;6.184;2023-04-28T02:35:28;98674.47;;;15.23;100.00
50123;BME280;36021;48.670;6.184;2023-04-28T02:37:54;98679.50;;;15.30;100.00
50123;BME280;36021;48.670;6.184;2023-04-28T02:40:19;98677.03;;;15.37;100.00
50123;BME280;36021;48.670;6.184;2023-04-28T02:42:47;98674.03;;;15.50;100.00
50123;BME280;36021;48.670;6.184;2023-04-28T02:45:13;98679.75;;;15.54;100.00
50123;BME280;36021;48.670;6.184;2023-04-28T02:47:39;98690.38;;;15.43;100.00
50123;BME280;36021;48.670;6.184;2023-04-28T02:50:05;98692.78;;;15.24;100.00
50123;BME280;36021;48.670;6.184;2023-04-28T02:52:31;98693.63;;;15.45;100.00
50123;BME280;36021;48.670;6.184;2023-04-28T02:54:56;98690.22;;;15.40;100.00
50123;BME280;36021;48.670;6.184;2023-04-28T02:57:22;98693.47;;;15.42;100.00
50123;BME280;36021;48.670;6.184;2023-04-28T02:59:48;98681.19;;;15.51;100.00
50123;BME280;36021;48.670;6.184;2023-04-28T03:02:14;98683.94;;;15.60;100.00
50123;BME280;36021;48.670;6.184;2023-04-28T03:04:40;98679.47;;;15.68;100.00
50123;BME280;36021;48.670;6.184;2023-04-28T03:07:05;98682.31;;;15.59;100.00
50123;BME280;36021;48.670;6.184;2023-04-28T03:09:33;98680.16;;;15.64;100.00
50123;BME280;36021;48.670;6.184;2023-04-28T03:11:59;98678.25;;;15.56;100.00
50123;BME280;36021;48.670;6.184;2023-04-28T03:14:24;98672.44;;;15.70;100.00
50123;BME280;36021;48.670;6.184;2023-04-28T03:16:50;98676.00;;;15.71;100.00
50123;BME280;36021;48.670;6.184;2023-04-28T03:19:16;98674.41;;;15.70;100.00
50123;BME280;36021;48.670;6.184;2023-04-28T03:21:42;98676.16;;;15.74;100.00
50123;BME280;36021;48.670;6.184;2023-04-28T03:24:08;98671.69;;;15.82;100.00
50123;BME280;36021;48.670;6.184;2023-04-28T03:26:34;98660.25;;;15.83;100.00
50123;BME280;36021;48.670;6.184;2023-04-28T03:28:59;98661.53;;;15.86;100.00
50123;BME280;36021;48.670;6.184;2023-04-28T03:31:25;98656.44;;;15.88;100.00
50123;BME280;36021;48.670;6.184;2023-04-28T03:33:51;98657.19;;;15.97;100.00
50123;BME280;36021;48.670;6.184;2023-04-28T03:36:16;98652.53;;;15.89;100.00
50123;BME280;36021;48.670;6.184;2023-04-28T03:38:42;98662.41;;;15.78;100.00
50123;BME280;36021;48.670;6.184;2023-04-28T03:41:08;98662.00;;;15.88;100.00
50123;BME280;36021;48.670;6.184;2023-04-28T03:44:12;98653.88;;;15.83;100.00
50123;BME280;36021;48.670;6.184;2023-04-28T03:46:45;98653.38;;;15.81;100.00
50123;BME280;36021;48.670;6.184;2023-04-28T03:49:11;98642.94;;;15.78;100.00
50123;BME280;36021;48.670;6.184;2023-04-28T03:51:38;98652.66;;;15.72;100.00
50123;BME280;36021;48.670;6.184;2023-04-28T03:54:03;98652.66;;;15.72;100.00
50123;BME280;36021;48.670;6.184;2023-04-28T03:56:29;98657.06;;;15.73;100.00
50123;BME280;36021;48.670;6.184;2023-04-28T03:58:57;98659.28;;;15.58;100.00
50123;BME280;36021;48.670;6.184;2023-04-28T04:01:23;98659.47;;;15.53;100.00
50123;BME280;36021;48.670;6.184;2023-04-28T04:03:49;98658.50;;;15.49;100.00
50123;BME280;36021;48.670;6.184;2023-04-28T04:06:14;98654.97;;;15.70;100.00
50123;BME280;36021;48.670;6.184;2023-04-28T04:08:42;98659.28;;;15.58;100.00
50123;BME280;36021;48.670;6.184;2023-04-28T04:11:07;98656.69;;;15.53;100.00
50123;BME280;36021;48.670;6.184;2023-04-28T04:13:33;98670.88;;;15.60;100.00
50123;BME280;36021;48.670;6.184;2023-04-28T04:16:01;98667.97;;;15.57;100.00
50123;BME280;36021;48.670;6.184;2023-04-28T04:18:27;98664.50;;;15.60;100.00
50123;BME280;36021;48.670;6.184;2023-04-28T04:21:12;98661.19;;;15.67;100.00
50123;BME280;36021;48.670;6.184;2023-04-28T04:23:39;98660.75;;;15.56;100.00
50123;BME280;36021;48.670;6.184;2023-04-28T04:26:07;98664.72;;;15.46;100.00
50123;BME280;36021;48.670;6.184;2023-04-28T04:28:32;98669.63;;;15.49;100.00
50123;BME280;36021;48.670;6.184;2023-04-28T04:30:58;98661.28;;;15.49;100.00
50123;BME280;36021;48.670;6.184;2023-04-28T04:33:23;98666.19;;;15.52;100.00
50123;BME280;36021;48.670;6.184;2023-04-28T04:35:49;98666.88;;;15.41;100.00
50123;BME280;36021;48.670;6.184;2023-04-28T04:38:15;98669.22;;;15.30;100.00
50123;BME280;36021;48.670;6.184;2023-04-28T04:40:41;98674.09;;;15.33;100.00
50123;BME280;36021;48.670;6.184;2023-04-28T04:43:08;98671.31;;;15.33;100.00
50123;BME280;36021;48.670;6.184;2023-04-28T04:45:41;98678.00;;;15.32;100.00
50123;BME280;36021;48.670;6.184;2023-04-28T04:48:07;98677.03;;;15.28;100.00
50123;BME280;36021;48.670;6.184;2023-04-28T04:50:34;98671.50;;;15.28;100.00
50123;BME280;36021;48.670;6.184;2023-04-28T04:52:59;98671.69;;;15.23;100.00
50123;BME280;36021;48.670;6.184;2023-04-28T04:55:25;98681.13;;;15.31;100.00
50123;BME280;36021;48.670;6.184;2023-04-28T04:57:51;98677.34;;;15.35;100.00
50123;BME280;36021;48.670;6.184;2023-04-28T05:00:36;98676.66;;;15.38;100.00
50123;BME280;36021;48.670;6.184;2023-04-28T05:03:02;98681.56;;;15.41;100.00
50123;BME280;36021;48.670;6.184;2023-04-28T05:05:31;98684.34;;;15.41;100.00
50123;BME280;36021;48.670;6.184;2023-04-28T05:08:14;98679.41;;;15.47;100.00
50123;BME280;36021;48.670;6.184;2023-04-28T05:10:41;98671.91;;;15.47;100.00
50123;BME280;36021;48.670;6.184;2023-04-28T05:13:07;98672.09;;;15.42;100.00
50123;BME280;36021;48.670;6.184;2023-04-28T05:15:33;98669.66;;;15.41;100.00
50123;BME280;36021;48.670;6.184;2023-04-28T05:18:22;98676.97;;;15.45;100.00
50123;BME280;36021;48.670;6.184;2023-04-28T05:20:47;98688.88;;;15.46;100.00
50123;BME280;36021;48.670;6.184;2023-04-28T05:23:16;98685.22;;;15.33;100.00
50123;BME280;36021;48.670;6.184;2023-04-28T05:25:42;98691.91;;;15.32;100.00
50123;BME280;36021;48.670;6.184;2023-04-28T05:28:08;98691.44;;;15.30;100.00
50123;BME280;36021;48.670;6.184;2023-04-28T05:30:34;98700.22;;;15.32;100.00
50123;BME280;36021;48.670;6.184;2023-04-28T05:32:59;98695.50;;;15.33;100.00
50123;BME280;36021;48.670;6.184;2023-04-28T05:35:25;98699.25;;;15.28;100.00
50123;BME280;36021;48.670;6.184;2023-04-28T05:37:51;98703.69;;;15.29;100.00
50123;BME280;36021;48.670;6.184;2023-04-28T05:40:16;98704.97;;;15.32;100.00
50123;BME280;36021;48.670;6.184;2023-04-28T05:42:44;98708.09;;;15.30;100.00
50123;BME280;36021;48.670;6.184;2023-04-28T05:45:10;98704.78;;;15.37;100.00
50123;BME280;36021;48.670;6.184;2023-04-28T05:47:36;98710.97;;;15.42;100.00
50123;BME280;36021;48.670;6.184;2023-04-28T05:50:01;98707.38;;;15.50;100.00
50123;BME280;36021;48.670;6.184;2023-04-28T05:52:29;98701.81;;;15.50;100.00
50123;BME280;36021;48.670;6.184;2023-04-28T05:54:54;98712.31;;;15.36;100.00
50123;BME280;36021;48.670;6.184;2023-04-28T05:57:20;98723.41;;;15.36;100.00
50123;BME280;36021;48.670;6.184;2023-04-28T05:59:47;98720.16;;;15.34;100.00
50123;BME280;36021;48.670;6.184;2023-04-28T06:02:15;98725.34;;;15.44;100.00
50123;BME280;36021;48.670;6.184;2023-04-28T06:04:42;98724.50;;;15.52;100.00
50123;BME280;36021;48.670;6.184;2023-04-28T06:07:08;98730.88;;;15.53;100.00
50123;BME280;36021;48.670;6.184;2023-04-28T06:09:36;98733.97;;;15.60;100.00
50123;BME280;36021;48.670;6.184;2023-04-28T06:12:01;98739.66;;;15.63;100.00
50123;BME280;36021;48.670;6.184;2023-04-28T06:14:29;98731.78;;;15.66;100.00
50123;BME280;36021;48.670;6.184;2023-04-28T06:16:54;98737.03;;;15.67;100.00
50123;BME280;36021;48.670;6.184;2023-04-28T06:19:20;98732.94;;;15.64;100.00
50123;BME280;36021;48.670;6.184;2023-04-28T06:21:46;98743.38;;;15.68;100.00
50123;BME280;36021;48.670;6.184;2023-04-28T06:24:15;98741.47;;;15.89;100.00
50123;BME280;36021;48.670;6.184;2023-04-28T06:26:43;98740.13;;;15.95;100.00
50123;BME280;36021;48.670;6.184;2023-04-28T06:29:09;98742.81;;;16.03;100.00
50123;BME280;36021;48.670;6.184;2023-04-28T06:31:34;98737.75;;;16.05;100.00
50123;BME280;36021;48.670;6.184;2023-04-28T06:34:00;98737.78;;;15.97;100.00
50123;BME280;36021;48.670;6.184;2023-04-28T06:36:26;98747.59;;;16.03;100.00
50123;BME280;36021;48.670;6.184;2023-04-28T06:38:52;98747.72;;;15.77;100.00
50123;BME280;36021;48.670;6.184;2023-04-28T06:41:19;98743.28;;;15.85;100.00
50123;BME280;36021;48.670;6.184;2023-04-28T06:43:49;98743.66;;;15.75;100.00
50123;BME280;36021;48.670;6.184;2023-04-28T06:46:27;98741.03;;;15.78;100.00
50123;BME280;36021;48.670;6.184;2023-04-28T06:48:53;98740.72;;;15.80;100.00
50123;BME280;36021;48.670;6.184;2023-04-28T06:51:18;98738.06;;;15.83;100.00
50123;BME280;36021;48.670;6.184;2023-04-28T06:53:45;98733.97;;;15.81;100.00
50123;BME280;36021;48.670;6.184;2023-04-28T06:56:11;98731.94;;;15.69;100.00
50123;BME280;36021;48.670;6.184;2023-04-28T06:58:38;98729.59;;;15.80;100.00
50123;BME280;36021;48.670;6.184;2023-04-28T07:01:04;98737.41;;;15.86;100.00
50123;BME280;36021;48.670;6.184;2023-04-28T07:03:30;98744.41;;;15.84;100.00
50123;BME280;36021;48.670;6.184;2023-04-28T07:05:56;98737.72;;;15.85;100.00
50123;BME280;36021;48.670;6.184;2023-04-28T07:08:21;98756.47;;;15.96;100.00
50123;BME280;36021;48.670;6.184;2023-04-28T07:10:47;98762.22;;;15.91;100.00
50123;BME280;36021;48.670;6.184;2023-04-28T07:13:13;98763.09;;;16.04;100.00
50123;BME280;36021;48.670;6.184;2023-04-28T07:15:39;98766.56;;;16.01;100.00
50123;BME280;36021;48.670;6.184;2023-04-28T07:18:04;98765.50;;;16.14;100.00
50123;BME280;36021;48.670;6.184;2023-04-28T07:20:30;98766.16;;;16.11;100.00
50123;BME280;36021;48.670;6.184;2023-04-28T07:22:56;98767.28;;;16.19;100.00
50123;BME280;36021;48.670;6.184;2023-04-28T07:25:22;98778.53;;;16.22;100.00
50123;BME280;36021;48.670;6.184;2023-04-28T07:27:47;98774.53;;;16.32;100.00
50123;BME280;36021;48.670;6.184;2023-04-28T07:30:14;98782.06;;;16.52;100.00
50123;BME280;36021;48.670;6.184;2023-04-28T07:32:40;98782.34;;;16.59;100.00
50123;BME280;36021;48.670;6.184;2023-04-28T07:35:06;98780.06;;;16.61;100.00
50123;BME280;36021;48.670;6.184;2023-04-28T07:37:31;98782.72;;;16.57;100.00
50123;BME280;36021;48.670;6.184;2023-04-28T07:39:57;98772.31;;;16.66;100.00
50123;BME280;36021;48.670;6.184;2023-04-28T07:42:22;98779.56;;;16.80;100.00
50123;BME280;36021;48.670;6.184;2023-04-28T07:44:50;98776.63;;;16.76;100.00
50123;BME280;36021;48.670;6.184;2023-04-28T07:47:16;98776.50;;;16.73;100.00
50123;BME280;36021;48.670;6.184;2023-04-28T07:49:41;98781.38;;;16.76;100.00
50123;BME280;36021;48.670;6.184;2023-04-28T07:52:08;98779.72;;;16.95;100.00
50123;BME280;36021;48.670;6.184;2023-04-28T07:54:34;98782.88;;;16.94;100.00
50123;BME280;36021;48.670;6.184;2023-04-28T07:56:59;98789.38;;;16.65;100.00
50123;BME280;36021;48.670;6.184;2023-04-28T07:59:32;98794.38;;;16.72;100.00
50123;BME280;36021;48.670;6.184;2023-04-28T08:01:57;98796.47;;;16.75;100.00
50123;BME280;36021;48.670;6.184;2023-04-28T08:04:23;98795.53;;;16.71;100.00
50123;BME280;36021;48.670;6.184;2023-04-28T08:06:48;98808.13;;;16.89;100.00
50123;BME280;36021;48.670;6.184;2023-04-28T08:09:16;98803.25;;;16.86;100.00
50123;BME280;36021;48.670;6.184;2023-04-28T08:11:42;98803.03;;;16.91;100.00
50123;BME280;36021;48.670;6.184;2023-04-28T08:14:07;98807.28;;;17.09;100.00
50123;BME280;36021;48.670;6.184;2023-04-28T08:16:34;98813.66;;;17.09;100.00
50123;BME280;36021;48.670;6.184;2023-04-28T08:19:02;98805.91;;;17.15;100.00
50123;BME280;36021;48.670;6.184;2023-04-28T08:21:28;98804.81;;;17.40;100.00
50123;BME280;36021;48.670;6.184;2023-04-28T08:23:53;98796.22;;;17.33;100.00
50123;BME280;36021;48.670;6.184;2023-04-28T08:26:20;98794.66;;;17.56;100.00
50123;BME280;36021;48.670;6.184;2023-04-28T08:28:46;98793.91;;;17.47;100.00
50123;BME280;36021;48.670;6.184;2023-04-28T08:31:11;98784.50;;;17.40;100.00
50123;BME280;36021;48.670;6.184;2023-04-28T08:33:37;98792.41;;;17.50;100.00
50123;BME280;36021;48.670;6.184;2023-04-28T08:36:03;98803.47;;;17.58;100.00
50123;BME280;36021;48.670;6.184;2023-04-28T08:38:29;98800.94;;;17.65;100.00
50123;BME280;36021;48.670;6.184;2023-04-28T08:40:54;98796.06;;;17.75;100.00
50123;BME280;36021;48.670;6.184;2023-04-28T08:43:20;98801.19;;;17.85;100.00
50123;BME280;36021;48.670;6.184;2023-04-28T08:45:46;98797.59;;;17.96;100.00
50123;BME280;36021;48.670;6.184;2023-04-28T08:48:18;98793.75;;;18.01;100.00
50123;BME280;36021;48.670;6.184;2023-04-28T08:50:47;98792.56;;;18.14;100.00
50123;BME280;36021;48.670;6.184;2023-04-28T08:53:15;98790.69;;;18.30;100.00
50123;BME280;36021;48.670;6.184;2023-04-28T08:55:44;98786.16;;;18.38;100.00
50123;BME280;36021;48.670;6.184;2023-04-28T08:58:10;98782.28;;;18.42;100.00
50123;BME280;36021;48.670;6.184;2023-04-28T09:00:36;98776.75;;;18.30;100.00
50123;BME280;36021;48.670;6.184;2023-04-28T09:03:02;98782.31;;;18.30;100.00
50123;BME280;36021;48.670;6.184;2023-04-28T09:05:27;98784.84;;;18.47;100.00
50123;BME280;36021;48.670;6.184;2023-04-28T09:07:53;98783.41;;;18.01;100.00
50123;BME280;36021;48.670;6.184;2023-04-28T09:10:20;98788.50;;;17.87;100.00
50123;BME280;36021;48.670;6.184;2023-04-28T09:12:46;98790.63;;;17.78;100.00
50123;BME280;36021;48.670;6.184;2023-04-28T09:17:51;98796.19;;;17.78;100.00
50123;BME280;36021;48.670;6.184;2023-04-28T09:20:26;98802.34;;;17.84;100.00
50123;BME280;36021;48.670;6.184;2023-04-28T09:22:53;98794.44;;;17.74;100.00
50123;BME280;36021;48.670;6.184;2023-04-28T09:25:19;98799.53;;;17.59;100.00
50123;BME280;36021;48.670;6.184;2023-04-28T09:27:48;98816.31;;;17.51;100.00
50123;BME280;36021;48.670;6.184;2023-04-28T09:30:14;98815.56;;;17.62;100.00
50123;BME280;36021;48.670;6.184;2023-04-28T09:32:39;98813.66;;;17.42;100.00
50123;BME280;36021;48.670;6.184;2023-04-28T09:35:05;98820.41;;;17.53;100.00
50123;BME280;36021;48.670;6.184;2023-04-28T09:37:32;98818.41;;;17.54;100.00
50123;BME280;36021;48.670;6.184;2023-04-28T09:40:05;98813.47;;;17.59;100.00
50123;BME280;36021;48.670;6.184;2023-04-28T09:45:05;98823.19;;;17.53;100.00
50123;BME280;36021;48.670;6.184;2023-04-28T09:47:34;98812.53;;;17.67;100.00
50123;BME280;36021;48.670;6.184;2023-04-28T09:50:04;98813.16;;;17.73;100.00
50123;BME280;36021;48.670;6.184;2023-04-28T09:52:34;98811.53;;;17.84;100.00
50123;BME280;36021;48.670;6.184;2023-04-28T09:55:02;98813.50;;;17.84;100.00
50123;BME280;36021;48.670;6.184;2023-04-28T09:57:29;98818.72;;;17.85;100.00
50123;BME280;36021;48.670;6.184;2023-04-28T09:59:55;98802.09;;;18.13;100.00
50123;BME280;36021;48.670;6.184;2023-04-28T10:02:22;98794.19;;;18.27;100.00
50123;BME280;36021;48.670;6.184;2023-04-28T10:04:48;98790.09;;;18.37;100.00
50123;BME280;36021;48.670;6.184;2023-04-28T10:07:15;98786.47;;;18.60;100.00
50123;BME280;36021;48.670;6.184;2023-04-28T10:09:42;98780.63;;;18.65;100.00
50123;BME280;36021;48.670;6.184;2023-04-28T10:12:19;98780.72;;;18.69;100.00
50123;BME280;36021;48.670;6.184;2023-04-28T10:14:47;98781.66;;;18.73;100.00
50123;BME280;36021;48.670;6.184;2023-04-28T10:17:14;98780.53;;;18.90;100.00
50123;BME280;36021;48.670;6.184;2023-04-28T10:19:40;98769.38;;;18.90;100.00
50123;BME280;36021;48.670;6.184;2023-04-28T10:27:27;98768.97;;;18.76;100.00
50123;BME280;36021;48.670;6.184;2023-04-28T10:29:53;98777.91;;;18.81;100.00
50123;BME280;36021;48.670;6.184;2023-04-28T10:32:23;98778.31;;;18.67;100.00
50123;BME280;36021;48.670;6.184;2023-04-28T10:34:50;98780.44;;;18.58;100.00
50123;BME280;36021;48.670;6.184;2023-04-28T10:37:17;98785.38;;;18.25;100.00
50123;BME280;36021;48.670;6.184;2023-04-28T10:42:52;98785.22;;;18.34;100.00
50123;BME280;36021;48.670;6.184;2023-04-28T10:45:53;98785.81;;;18.51;100.00
50123;BME280;36021;48.670;6.184;2023-04-28T10:48:05;98777.19;;;18.44;100.00
50123;BME280;36021;48.670;6.184;2023-04-28T10:50:31;98779.03;;;18.64;100.00
50123;BME280;36021;48.670;6.184;2023-04-28T10:52:56;98764.31;;;18.28;100.00
50123;BME280;36021;48.670;6.184;2023-04-28T10:55:25;98762.53;;;18.47;100.00
50123;BME280;36021;48.670;6.184;2023-04-28T11:00:36;98762.78;;;18.30;100.00
50123;BME280;36021;48.670;6.184;2023-04-28T11:03:01;98768.13;;;18.35;100.00
50123;BME280;36021;48.670;6.184;2023-04-28T11:05:27;98776.28;;;18.28;100.00
50123;BME280;36021;48.670;6.184;2023-04-28T11:08:39;98778.88;;;18.09;100.00
50123;BME280;36021;48.670;6.184;2023-04-28T11:13:27;98785.81;;;18.51;100.00
50123;BME280;36021;48.670;6.184;2023-04-28T11:16:02;98778.44;;;18.47;100.00
50123;BME280;36021;48.670;6.184;2023-04-28T11:18:28;98777.44;;;18.51;100.00
50123;BME280;36021;48.670;6.184;2023-04-28T11:20:55;98780.44;;;18.58;100.00
50123;BME280;36021;48.670;6.184;2023-04-28T11:23:22;98776.25;;;18.52;100.00
50123;BME280;36021;48.670;6.184;2023-04-28T11:25:53;98767.88;;;18.52;100.00
50123;BME280;36021;48.670;6.184;2023-04-28T11:28:19;98773.03;;;18.26;100.00
50123;BME280;36021;48.670;6.184;2023-04-28T11:30:45;98779.66;;;18.21;100.00
50123;BME280;36021;48.670;6.184;2023-04-28T11:33:10;98780.00;;;18.20;100.00
50123;BME280;36021;48.670;6.184;2023-04-28T11:35:40;98781.38;;;18.38;100.00
50123;BME280;36021;48.670;6.184;2023-04-28T11:38:05;98767.16;;;18.67;100.00
50123;BME280;36021;48.670;6.184;2023-04-28T11:40:31;98757.03;;;18.91;100.00
50123;BME280;36021;48.670;6.184;2023-04-28T11:42:57;98749.50;;;19.07;100.00
50123;BME280;36021;48.670;6.184;2023-04-28T11:45:26;98745.53;;;19.51;100.00
50123;BME280;36021;48.670;6.184;2023-04-28T11:47:52;98723.16;;;19.83;100.00
50123;BME280;36021;48.670;6.184;2023-04-28T11:50:33;98731.53;;;20.17;100.00
50123;BME280;36021;48.670;6.184;2023-04-28T11:53:00;98717.91;;;20.51;100.00
50123;BME280;36021;48.670;6.184;2023-04-28T11:55:26;98722.19;;;20.83;100.00
50123;BME280;36021;48.670;6.184;2023-04-28T12:00:37;98716.94;;;20.62;100.00
50123;BME280;36021;48.670;6.184;2023-04-28T12:03:06;98711.34;;;20.62;100.00
50123;BME280;36021;48.670;6.184;2023-04-28T12:05:32;98706.97;;;21.03;100.00
50123;BME280;36021;48.670;6.184;2023-04-28T12:08:00;98703.84;;;21.08;100.00
50123;BME280;36021;48.670;6.184;2023-04-28T12:10:25;98698.91;;;21.21;100.00
50123;BME280;36021;48.670;6.184;2023-04-28T12:12:51;98694.31;;;21.32;100.00
50123;BME280;36021;48.670;6.184;2023-04-28T12:15:16;98689.00;;;21.99;100.00
50123;BME280;36021;48.670;6.184;2023-04-28T12:17:42;98681.00;;;22.01;100.00
50123;BME280;36021;48.670;6.184;2023-04-28T12:20:08;98676.38;;;22.12;100.00
50123;BME280;36021;48.670;6.184;2023-04-28T12:25:12;98674.97;;;22.92;100.00
50123;BME280;36021;48.670;6.184;2023-04-28T12:27:40;98684.69;;;22.05;100.00
50123;BME280;36021;48.670;6.184;2023-04-28T12:32:43;98686.34;;;21.60;100.00
50123;BME280;36021;48.670;6.184;2023-04-28T12:35:09;98680.72;;;21.34;100.00
50123;BME280;36021;48.670;6.184;2023-04-28T12:37:35;98682.81;;;21.18;100.00
50123;BME280;36021;48.670;6.184;2023-04-28T12:40:02;98687.22;;;20.96;100.00
50123;BME280;36021;48.670;6.184;2023-04-28T12:42:30;98688.72;;;20.71;100.00
50123;BME280;36021;48.670;6.184;2023-04-28T12:44:57;98685.78;;;20.64;100.00
50123;BME280;36021;48.670;6.184;2023-04-28T12:47:22;98689.84;;;20.66;100.00
50123;BME280;36021;48.670;6.184;2023-04-28T12:49:48;98712.47;;;20.23;100.00
50123;BME280;36021;48.670;6.184;2023-04-28T12:52:18;98717.03;;;19.61;100.00
50123;BME280;36021;48.670;6.184;2023-04-28T12:54:46;98730.91;;;19.42;100.00
50123;BME280;36021;48.670;6.184;2023-04-28T12:57:15;98740.94;;;19.00;100.00
50123;BME280;36021;48.670;6.184;2023-04-28T12:59:41;98756.59;;;18.37;100.00
50123;BME280;36021;48.670;6.184;2023-04-28T13:02:07;98757.81;;;18.23;100.00
50123;BME280;36021;48.670;6.184;2023-04-28T13:04:33;98772.81;;;18.19;100.00
50123;BME280;36021;48.670;6.184;2023-04-28T13:06:59;98766.56;;;17.98;100.00
50123;BME280;36021;48.670;6.184;2023-04-28T13:09:25;98765.28;;;18.07;100.00
50123;BME280;36021;48.670;6.184;2023-04-28T13:11:52;98769.03;;;18.39;100.00
50123;BME280;36021;48.670;6.184;2023-04-28T13:14:18;98753.81;;;18.37;100.00
50123;BME280;36021;48.670;6.184;2023-04-28T13:16:44;98740.94;;;18.72;100.00